Latest Weather Observations for Wilsons Promontory

IDV60801

Issued at 6:43 pm EST Tuesday 17 May 2022 (issued every 10 minutes, with the page automatically refreshed every 10 minutes)

About weather observations | Map of weather stations | Latest weather observations for VIC | Other Formats
Station Details ID: 085096 Name: WILSONS PROMONTORY LIGHTHOUSE Lat: -39.13 Lon: 146.42 Height: 95.0 m
Data from the previous 72 hours. | See also: Recent months at Wilsons Promontory
Date/Time
EST
Temp
°C
App
Temp
°C
Dew
Point
°C
Rel
Hum
%
Delta-T
°C
Wind Press
QNH
hPa
Press
MSL
hPa
Rain since
9am
mm
Dir  Spd
km/h
Gust
km/h
Spd
kts
Gust
kts
17/06:30pm 12.8 3.9 6.8 67 2.9 WNW 43 80 23 43 1012.7 1012.7 0.4
17/06:00pm 12.9 4.8 7.1 68 2.8 W 39 67 21 36 1012.9 1012.9 0.4
17/05:30pm 13.0 4.1 7.0 67 2.9 W 43 72 23 39 1012.6 1012.6 0.4
17/05:03pm 13.0 4.5 7.0 67 2.9 W 41 76 22 41 1012.5 1012.5 0.4
17/05:00pm 12.9 5.2 6.9 67 2.9 W 37 56 20 30 1012.9 1012.9 0.4
17/04:30pm 12.8 5.0 6.8 67 2.9 W 37 65 20 35 1013.0 1013.0 0.4
17/04:00pm 12.8 3.7 6.8 67 2.9 W 44 72 24 39 1012.8 1012.8 0.4
17/03:30pm 12.7 3.9 7.2 69 2.7 W 43 63 23 34 1012.9 1012.9 0.4
17/03:00pm 12.6 2.8 6.9 68 2.8 W 48 89 26 48 1012.6 1012.6 0.4
17/02:30pm 12.4 2.6 7.1 70 2.6 W 48 74 26 40 1012.9 1012.9 0.4
17/02:00pm 12.4 2.0 7.7 73 2.3 W 52 78 28 42 1012.7 1012.7 0.4
17/01:30pm 12.0 2.3 7.5 74 2.2 W 48 83 26 45 1012.6 1012.6 0.4
17/01:00pm 12.1 2.8 7.6 74 2.2 W 46 89 25 48 1012.9 1012.9 0.4
17/12:30pm 11.9 2.7 7.8 76 2.0 W 46 74 25 40 1013.3 1013.3 0.4
17/12:00pm 11.8 4.0 8.1 78 1.8 W 39 67 21 36 1014.0 1014.0 0.4
17/11:30am 11.3 2.7 8.2 81 1.5 W 43 70 23 38 1013.9 1013.9 0.4
17/11:00am 11.8 2.6 7.9 77 1.9 W 46 67 25 36 1014.1 1014.1 0.4
17/10:30am 11.1 2.5 8.3 83 1.4 W 43 69 23 37 1014.3 1014.3 0.2
17/10:00am 11.5 4.1 8.4 81 1.5 W 37 61 20 33 1014.6 1014.6 0.0
17/09:30am 11.7 2.4 7.6 76 2.0 W 46 72 25 39 1014.3 1014.3 0.0
17/09:00am 11.4 2.6 7.9 79 1.7 W 44 74 24 40 1014.0 1014.0 12.6
17/08:30am 11.1 3.2 7.8 80 1.6 W 39 69 21 37 1014.1 1014.1 12.6
17/08:00am 11.3 2.6 7.8 79 1.7 W 43 67 23 36 1013.8 1013.8 12.4
17/07:30am 11.2 2.5 7.9 80 1.6 W 43 69 23 37 1013.5 1013.5 12.2
17/07:00am 10.8 2.2 8.2 84 1.3 W 43 69 23 37 1013.2 1013.2 12.2
17/06:30am 9.7 -0.4 7.5 86 1.1 W 50 85 27 46 1013.1 1013.1 10.4
17/06:00am 10.5 -0.7 7.6 82 1.4 W 56 80 30 43 1012.7 1012.7 8.2
17/05:58am 10.7 -0.6 7.8 82 1.4 W 57 80 31 43 1012.4 1012.4 8.2
17/05:56am 10.8 -1.0 7.3 79 1.7 W 59 80 32 43 1012.0 1012.0 8.2
17/05:30am 11.1 2.5 8.0 81 1.5 W 43 70 23 38 1012.3 1012.3 8.0
17/05:00am 11.4 1.3 7.3 76 2.0 W 50 72 27 39 1012.1 1012.1 7.6
17/04:30am 11.4 2.3 6.9 74 2.2 W 44 70 24 38 1011.7 1011.7 7.6
17/04:00am 11.0 2.2 7.9 81 1.5 W 44 70 24 38 1011.8 1011.8 7.6
17/03:30am 11.0 1.4 7.9 81 1.5 W 48 70 26 38 1011.9 1011.9 7.4
17/03:00am 10.6 1.0 7.8 83 1.4 W 48 74 26 40 1011.4 1011.4 6.6
17/02:30am 11.5 3.4 7.2 75 2.1 W 39 67 21 36 1011.7 1011.7 6.2
17/02:00am 11.6 3.0 6.7 72 2.3 W 41 72 22 39 1011.8 1011.8 6.2
17/01:30am 11.3 3.2 7.2 76 2.0 W 39 67 21 36 1011.9 1011.9 6.2
17/01:00am 10.9 1.5 7.2 78 1.8 W 46 78 25 42 1011.8 1011.8 6.2
17/12:56am 11.1 2.8 7.8 80 1.6 W 41 78 22 42 1011.5 1011.5 6.2
17/12:30am 10.9 3.9 7.0 77 1.9 W 33 52 18 28 1012.0 1012.0 6.2
17/12:00am 9.9 2.5 6.8 81 1.5 W 35 59 19 32 1012.1 1012.1 6.2
 
Date/Time
EST
Temp
°C
App
Temp
°C
Dew
Point
°C
Rel
Hum
%
Delta-T
°C
Wind Press
QNH
hPa
Press
MSL
hPa
Rain since
9am
mm
Dir  Spd
km/h
Gust
km/h
Spd
kts
Gust
kts
16/11:30pm 9.8 0.5 7.7 87 1.0 W 46 69 25 37 1011.7 1011.7 5.0
16/11:09pm 11.9 2.7 6.2 68 2.7 W 44 80 24 43 1011.6 1011.6 3.0
16/11:01pm 11.6 3.9 6.9 73 2.3 W 37 56 20 30 1011.7 1011.7 3.0
16/11:00pm 11.7 3.6 7.0 73 2.3 W 39 56 21 30 1011.8 1011.8 3.0
16/10:30pm 12.0 1.7 6.7 70 2.5 W 50 70 27 38 1011.3 1011.3 2.8
16/10:00pm 12.2 1.3 5.4 63 3.2 W 52 74 28 40 1011.2 1011.2 2.8
16/09:30pm 11.9 2.9 7.2 73 2.3 W 44 63 24 34 1011.6 1011.6 2.8
16/09:00pm 11.6 4.1 7.9 78 1.8 W 37 63 20 34 1011.8 1011.8 2.8
16/08:30pm 11.3 3.8 8.0 80 1.6 W 37 57 20 31 1011.8 1011.8 2.8
16/08:04pm 10.8 3.3 8.0 83 1.4 W 37 56 20 30 1011.6 1011.6 2.8
16/08:00pm 10.6 3.2 8.2 85 1.2 W 37 57 20 31 1011.7 1011.7 2.8
16/07:57pm 10.4 2.9 8.0 85 1.2 W 37 57 20 31 1011.8 1011.8 2.8
16/07:30pm 10.5 -0.6 7.9 84 1.3 W 56 78 30 42 1010.7 1010.7 1.6
16/07:00pm 11.3 -1.0 6.8 74 2.1 W 61 83 33 45 1010.1 1010.1 1.6
16/06:41pm 12.8 2.1 6.4 65 3.1 W 52 74 28 40 1010.1 1010.1 1.6
16/06:30pm 13.1 0.3 6.2 63 3.3 W 63 89 34 48 1009.8 1009.8 1.6
16/06:25pm 13.0 -0.7 5.9 62 3.4 W 67 89 36 48 1009.6 - 1.6
16/06:24pm 13.1 -1.5 5.8 61 3.5 W 72 89 39 48 1009.4 - 1.6
16/06:23pm 13.1 1.0 6.0 62 3.4 W 59 89 32 48 1009.5 1009.5 1.6
16/06:18pm 13.1 2.3 6.0 62 3.4 W 52 80 28 43 1009.5 1009.5 1.6
16/06:00pm 12.8 4.7 7.0 68 2.8 W 39 61 21 33 1009.8 1009.8 1.6
16/05:30pm 12.4 5.2 7.5 72 2.4 W 35 57 19 31 1009.6 1009.6 1.6
16/05:00pm 11.9 3.1 8.0 77 1.9 W 44 70 24 38 1009.6 1009.6 1.6
16/04:30pm 12.4 4.6 8.3 76 2.0 W 39 61 21 33 1009.1 1009.1 1.4
16/04:00pm 11.9 3.3 8.7 81 1.6 W 44 67 24 36 1008.9 1008.9 1.4
16/03:30pm 13.6 3.5 7.4 66 3.0 W 50 74 27 40 1008.6 1008.6 0.2
16/03:00pm 13.6 5.6 7.6 67 3.0 W 39 61 21 33 1008.4 1008.4 0.2
16/02:30pm 13.6 4.7 7.8 68 2.9 W 44 80 24 43 1008.5 1008.5 0.2
16/02:00pm 13.7 4.8 7.5 66 3.1 W 44 74 24 40 1008.2 1008.2 0.2
16/01:30pm 13.5 4.2 7.5 67 3.0 W 46 89 25 48 1008.1 1008.1 0.2
16/01:22pm 13.5 4.7 7.3 66 3.0 W 43 89 23 48 1008.0 1008.0 0.2
16/01:00pm 13.9 5.1 7.9 67 3.0 W 44 69 24 37 1008.4 1008.4 0.2
16/12:30pm 13.8 5.1 7.6 66 3.1 W 43 72 23 39 1008.8 1008.8 0.2
16/12:00pm 13.8 4.2 8.0 68 2.9 W 48 93 26 50 1008.9 1008.9 0.2
16/11:30am 13.8 3.8 7.8 67 3.0 W 50 83 27 45 1008.9 1008.9 0.2
16/11:00am 13.6 2.5 8.2 70 2.7 W 56 89 30 48 1008.8 1008.8 0.2
16/10:30am 13.6 4.1 8.4 71 2.6 W 48 91 26 49 1009.1 1009.1 0.2
16/10:25am 13.5 4.3 8.1 70 2.7 W 46 91 25 49 1008.9 - 0.2
16/10:21am 13.5 4.8 8.6 72 2.5 W 44 89 24 48 1008.8 1008.8 0.2
16/10:00am 13.4 4.9 8.7 73 2.4 W 43 70 23 38 1009.2 1009.2 0.2
16/09:30am 13.6 4.4 7.8 68 2.9 W 46 78 25 42 1009.1 1009.1 0.0
16/09:00am 13.6 5.1 8.7 72 2.5 W 43 74 23 40 1008.5 1008.5 2.8
16/08:30am 13.2 6.6 8.5 73 2.4 W 33 82 18 44 1008.7 1008.7 2.8
16/08:00am 13.1 5.7 8.2 72 2.4 WNW 37 69 20 37 1008.5 1008.5 2.8
16/07:30am 13.1 6.1 8.6 74 2.3 WNW 35 63 19 34 1008.1 1008.1 2.8
16/07:08am 13.2 6.8 8.5 73 2.4 W 32 65 17 35 1008.0 1008.0 2.8
16/07:06am 13.1 6.6 8.2 72 2.4 W 32 65 17 35 1008.1 1008.1 2.8
16/07:00am 13.2 6.1 8.1 71 2.5 WNW 35 67 19 36 1007.9 1007.9 2.8
16/06:59am 13.1 6.0 8.0 71 2.5 W 35 67 19 36 1008.2 1008.2 2.8
16/06:30am 13.7 4.8 7.0 64 3.3 W 43 89 23 48 1007.5 1007.4 2.8
16/06:22am 13.7 4.8 7.0 64 3.3 W 43 89 23 48 1007.1 1007.0 2.8
16/06:00am 13.7 6.0 7.0 64 3.3 W 37 69 20 37 1007.4 1007.3 2.8
16/05:30am 13.6 5.0 8.0 69 2.8 W 43 72 23 39 1007.1 1007.0 2.8
16/05:00am 13.6 4.3 7.4 66 3.1 W 46 78 25 42 1006.7 1006.6 2.8
16/04:30am 13.4 4.2 8.0 70 2.7 W 46 80 25 43 1006.3 1006.2 2.8
16/04:00am 13.4 4.2 7.8 69 2.8 W 46 78 25 42 1006.1 1006.0 2.8
16/03:43am 13.2 4.0 7.9 70 2.6 W 46 82 25 44 1006.2 1006.1 2.8
16/03:30am 13.4 6.4 8.5 72 2.5 W 35 63 19 34 1006.8 1006.7 2.8
16/03:00am 13.5 4.9 8.8 73 2.4 W 44 76 24 41 1006.6 1006.5 2.8
16/02:30am 13.8 4.6 8.2 69 2.8 W 46 74 25 40 1006.6 1006.5 2.8
16/02:00am 13.8 3.6 8.4 70 2.7 W 52 82 28 44 1006.2 1006.1 2.8
16/01:59am 13.8 3.2 8.4 70 2.7 W 54 82 29 44 1006.4 1006.3 2.8
16/01:30am 14.0 1.0 7.3 64 3.3 W 65 104 35 56 1005.7 1005.6 2.8
16/01:00am 14.3 2.0 8.7 69 2.9 W 63 96 34 52 1005.3 1005.2 2.8
16/12:59am 14.2 2.4 9.0 71 2.7 W 61 96 33 52 1005.7 1005.6 2.8
16/12:30am 14.2 4.0 10.0 76 2.2 W 54 78 29 42 1006.2 1006.1 2.8
16/12:00am 13.6 5.5 10.8 83 1.5 W 44 72 24 39 1006.6 1006.5 2.8
 
Date/Time
EST
Temp
°C
App
Temp
°C
Dew
Point
°C
Rel
Hum
%
Delta-T
°C
Wind Press
QNH
hPa
Press
MSL
hPa
Rain since
9am
mm
Dir  Spd
km/h
Gust
km/h
Spd
kts
Gust
kts
15/11:30pm 12.6 3.2 10.0 84 1.3 W 50 82 27 44 1006.4 1006.3 2.8
15/11:28pm 12.5 2.7 10.0 85 1.3 W 52 82 28 44 1006.6 1006.5 2.8
15/11:00pm 12.5 -0.4 10.6 88 1.0 W 69 102 37 55 1005.7 1005.6 1.6
15/10:57pm 12.6 -1.4 10.1 85 1.3 W 74 115 40 62 1005.7 1005.6 0.8
15/10:54pm 12.8 0.0 9.6 81 1.6 W 67 115 36 62 1005.7 - 0.2
15/10:50pm 13.2 -3.9 8.9 75 2.2 W 89 115 48 62 1004.8 - 0.0
15/10:49pm 13.8 5.5 9.5 75 2.2 W 43 115 23 62 1004.3 1004.3 0.0
15/10:48pm 14.8 7.8 9.8 72 2.6 W 37 115 20 62 1004.3 1004.3 0.0
15/10:30pm 15.9 10.0 10.4 70 2.9 WNW 32 69 17 37 1005.5 1005.4 0.0
15/10:01pm 16.2 10.6 10.1 67 3.2 WNW 30 65 16 35 1005.3 - 0.0
15/10:00pm 16.3 10.7 10.2 67 3.2 WNW 30 65 16 35 1005.3 1005.2 0.0
15/09:30pm 17.2 12.1 9.1 59 4.2 WNW 26 69 14 37 1005.1 1005.0 0.0
15/09:27pm 17.4 12.7 9.1 58 4.3 NW 24 69 13 37 1005.2 1005.1 0.0
15/09:00pm 17.5 14.7 8.4 55 4.7 NW 13 44 7 24 1005.1 1005.0 0.0
15/08:50pm 17.9 12.9 8.2 53 5.0 NNW 24 91 13 49 1004.6 1004.6 0.0
15/08:48pm 17.8 12.0 7.8 52 5.1 NNW 28 87 15 47 1004.8 1004.8 0.0
15/08:39pm 18.0 10.5 8.0 52 5.1 NNW 37 87 20 47 1004.1 1004.1 0.0
15/08:32pm 17.9 12.1 7.9 52 5.1 NNW 28 59 15 32 1004.5 1004.5 0.0
15/08:30pm 17.9 12.5 7.9 52 5.1 NNW 26 52 14 28 1004.8 1004.8 0.0
15/08:01pm 17.8 12.0 8.1 53 5.0 NNW 28 61 15 33 1004.8 - 0.0
15/08:00pm 17.8 11.3 8.1 53 5.0 NNW 32 61 17 33 1004.8 1004.8 0.0
15/07:30pm 17.9 12.2 8.5 54 4.9 NNW 28 50 15 27 1005.2 1005.1 0.0
15/07:00pm 17.7 12.8 8.6 55 4.7 NNW 24 43 13 23 1005.6 1005.5 0.0
15/06:30pm 17.5 14.0 8.6 56 4.6 N 17 30 9 16 1005.8 1005.7 0.0
15/06:00pm 17.4 14.7 8.8 57 4.5 NNW 13 37 7 20 1005.8 1005.7 0.0
15/05:30pm 17.1 14.1 9.3 60 4.1 NNW 15 26 8 14 1005.7 1005.6 0.0
15/05:00pm 17.1 14.7 10.2 64 3.7 NW 13 33 7 18 1005.5 1005.4 0.0
15/04:30pm 17.4 13.7 10.1 62 3.9 W 20 46 11 25 1005.8 1005.7 0.0
15/04:00pm 17.5 12.0 10.6 64 3.7 W 30 52 16 28 1005.6 1005.5 0.0
15/03:30pm 18.1 12.6 10.5 61 4.1 W 30 54 16 29 1005.4 1005.3 0.0
15/03:29pm 18.1 13.0 10.5 61 4.1 W 28 52 15 28 1005.6 - 0.0
15/03:00pm 18.2 14.2 10.6 61 4.1 W 22 54 12 29 1005.7 1005.6 0.0
15/02:30pm 18.1 12.6 10.7 62 4.0 W 30 59 16 32 1005.7 1005.6 0.0
15/02:02pm 18.1 13.0 10.7 62 4.0 W 28 50 15 27 1005.5 1005.4 0.0
15/02:00pm 18.1 13.0 10.7 62 4.0 W 28 44 15 24 1005.9 1005.8 0.0
15/01:30pm 18.4 14.0 10.5 60 4.3 WNW 24 54 13 29 1006.4 1006.3 0.0
15/01:00pm 18.0 12.7 11.3 65 3.7 W 30 63 16 34 1006.6 1006.5 0.0
15/12:30pm 17.7 12.3 11.0 65 3.6 W 30 57 16 31 1007.4 1007.3 0.0
15/12:13pm 17.9 13.9 10.5 62 4.0 WNW 22 50 12 27 1007.6 1007.5 0.0
15/12:00pm 18.0 14.9 10.4 61 4.1 WNW 17 35 9 19 1008.1 1008.1 0.0
15/11:30am 18.0 15.4 10.6 62 4.0 W 15 37 8 20 1008.7 1008.7 0.0
15/11:00am 17.9 15.7 10.8 63 3.8 NW 13 24 7 13 1009.3 1009.3 0.0
15/10:30am 17.7 15.3 10.1 61 4.0 W 13 33 7 18 1009.6 1009.6 0.0
15/10:00am 17.7 15.4 10.3 62 4.0 N 13 32 7 17 1009.9 1009.9 0.0
15/09:30am 17.2 13.8 10.6 65 3.5 NW 19 37 10 20 1010.3 1010.3 0.0
15/09:00am 16.8 14.3 10.9 68 3.2 NW 15 41 8 22 1010.4 1010.4 1.8
15/08:30am 16.3 13.3 10.8 70 2.9 NW 17 39 9 21 1010.4 1010.4 1.8
15/08:00am 15.9 14.2 11.1 73 2.6 NW 11 30 6 16 1010.4 1010.4 1.8
15/07:30am 15.5 12.3 11.1 75 2.4 NW 19 35 10 19 1010.6 1010.6 1.8
15/07:00am 15.4 13.3 11.2 76 2.3 NNW 13 32 7 17 1010.5 1010.5 1.8
15/06:30am 15.6 12.9 11.6 77 2.2 NW 17 32 9 17 1010.2 1010.2 1.8
15/06:00am 15.6 12.4 11.8 78 2.1 NW 20 44 11 24 1010.2 1010.2 1.8
15/05:30am 15.9 12.9 11.9 77 2.2 NW 19 41 10 22 1010.3 1010.3 1.8
15/05:00am 15.9 14.0 11.7 76 2.3 NNW 13 30 7 16 1010.2 1010.2 1.8
15/04:30am 15.8 14.3 11.8 77 2.2 NNW 11 32 6 17 1010.2 1010.2 1.8
15/04:00am 15.9 12.3 11.7 76 2.3 NW 22 39 12 21 1010.2 1010.2 1.8
15/03:36am 16.2 11.4 11.6 74 2.5 WNW 28 50 15 27 1010.2 1010.2 1.8
15/03:30am 16.1 12.8 11.5 74 2.5 WNW 20 41 11 22 1010.4 1010.4 1.8
15/03:00am 16.3 13.5 11.5 73 2.6 NW 17 35 9 19 1010.7 1010.7 1.8
15/02:30am 16.5 13.7 11.4 72 2.8 NNW 17 37 9 20 1010.8 1010.8 1.8
15/02:10am 16.6 13.3 11.5 72 2.8 NW 20 46 11 25 1010.4 1010.4 1.8
15/02:00am 16.5 13.3 11.4 72 2.8 NW 19 43 10 23 1010.5 1010.5 1.8
15/01:41am 16.6 12.5 11.5 72 2.8 NW 24 57 13 31 1010.3 1010.3 1.8
15/01:35am 16.5 13.3 11.4 72 2.8 NW 19 43 10 23 1010.5 1010.5 1.8
15/01:30am 16.6 13.8 11.5 72 2.8 NNW 17 41 9 22 1010.6 1010.6 1.8
15/01:00am 16.5 13.3 11.4 72 2.8 NW 19 41 10 22 1010.6 1010.6 1.8
15/12:30am 17.0 13.9 11.5 70 3.0 NNW 19 41 10 22 1010.7 1010.7 1.8
15/12:04am 17.0 12.1 11.3 69 3.1 NNW 28 48 15 26 1010.8 - 1.8
15/12:01am 17.0 12.1 11.3 69 3.1 NNW 28 48 15 26 1010.7 1010.7 1.8
15/12:00am 17.0 12.5 11.3 69 3.1 NNW 26 48 14 26 1010.8 1010.8 1.8
 
Date/Time
EST
Temp
°C
App
Temp
°C
Dew
Point
°C
Rel
Hum
%
Delta-T
°C
Wind Press
QNH
hPa
Press
MSL
hPa
Rain since
9am
mm
Dir  Spd
km/h
Gust
km/h
Spd
kts
Gust
kts
14/11:30pm 17.0 12.2 11.5 70 3.0 NW 28 50 15 27 1010.8 1010.8 1.8
14/11:00pm 16.9 11.6 11.4 70 3.0 NNW 30 57 16 31 1010.7 1010.7 1.8
14/10:31pm 17.2 12.4 11.5 69 3.1 NNW 28 48 15 26 1010.8 1010.8 1.8
14/10:30pm 17.1 12.2 11.4 69 3.1 NNW 28 43 15 23 1010.9 1010.9 1.8
14/10:00pm 16.9 12.0 11.4 70 3.0 NNW 28 54 15 29 1010.9 1010.9 1.8
14/09:30pm 16.8 11.3 11.7 72 2.8 NNW 32 59 17 32 1010.9 1010.9 1.8
14/09:00pm 16.5 11.7 11.6 73 2.7 NNW 28 54 15 29 1010.7 1010.7 1.8
14/08:35pm 16.5 11.8 11.9 74 2.5 NNW 28 50 15 27 1010.3 1010.3 1.8
14/08:30pm 16.3 12.7 11.7 74 2.5 NNW 22 50 12 27 1010.3 1010.3 1.8
14/08:00pm 16.4 13.3 11.6 73 2.6 NNW 19 41 10 22 1010.4 1010.4 1.8
14/07:30pm 16.5 13.3 11.2 71 2.9 NNW 19 32 10 17 1010.2 1010.2 1.8
14/07:00pm 16.9 15.3 11.4 70 3.0 NNW 11 30 6 16 1010.3 1010.3 1.8

Other formats

Comma delimited format used in spreadsheet applications
http://www.bom.gov.au/fwo/IDV60801/IDV60801.94893.axf

JavaScript Object Notation format (JSON) in row-major order
http://www.bom.gov.au/fwo/IDV60801/IDV60801.94893.json

Data quality

Most of these data are generated automatically and are frequently updated. Quality checks on data are not normally performed. It is possible for incorrect values to appear. Refer to information at About Latest Weather Observations and please check the disclaimer before using these data.